sensor_id;sensor_type;location;lat;lon;timestamp;P1;durP1;ratioP1;P2;durP2;ratioP2
26702;SDS011;14316;51.074;3.704;2024-01-15T00:02:09;6.13;;;3.40;;
26702;SDS011;14316;51.074;3.704;2024-01-15T00:04:38;5.63;;;2.97;;
26702;SDS011;14316;51.074;3.704;2024-01-15T00:07:05;7.00;;;2.67;;
26702;SDS011;14316;51.074;3.704;2024-01-15T00:09:31;5.40;;;2.60;;
26702;SDS011;14316;51.074;3.704;2024-01-15T00:11:57;9.18;;;3.53;;
26702;SDS011;14316;51.074;3.704;2024-01-15T00:14:24;8.73;;;3.38;;
26702;SDS011;14316;51.074;3.704;2024-01-15T00:16:50;7.30;;;3.22;;
26702;SDS011;14316;51.074;3.704;2024-01-15T00:19:17;7.10;;;3.55;;
26702;SDS011;14316;51.074;3.704;2024-01-15T00:21:43;8.32;;;3.78;;
26702;SDS011;14316;51.074;3.704;2024-01-15T00:24:10;7.63;;;3.83;;
26702;SDS011;14316;51.074;3.704;2024-01-15T00:26:37;8.00;;;3.95;;
26702;SDS011;14316;51.074;3.704;2024-01-15T00:29:03;7.25;;;3.85;;
26702;SDS011;14316;51.074;3.704;2024-01-15T00:31:29;3.17;;;2.15;;
26702;SDS011;14316;51.074;3.704;2024-01-15T00:33:55;6.93;;;3.38;;
26702;SDS011;14316;51.074;3.704;2024-01-15T00:36:22;8.43;;;3.60;;
26702;SDS011;14316;51.074;3.704;2024-01-15T00:38:48;8.60;;;3.38;;
26702;SDS011;14316;51.074;3.704;2024-01-15T00:41:14;8.10;;;3.67;;
26702;SDS011;14316;51.074;3.704;2024-01-15T00:43:40;7.30;;;3.50;;
26702;SDS011;14316;51.074;3.704;2024-01-15T00:46:06;6.32;;;4.40;;
26702;SDS011;14316;51.074;3.704;2024-01-15T00:48:32;7.95;;;3.72;;
26702;SDS011;14316;51.074;3.704;2024-01-15T00:50:58;3.90;;;3.05;;
26702;SDS011;14316;51.074;3.704;2024-01-15T00:53:25;4.90;;;2.78;;
26702;SDS011;14316;51.074;3.704;2024-01-15T00:55:51;6.43;;;3.72;;
26702;SDS011;14316;51.074;3.704;2024-01-15T00:58:17;6.07;;;3.60;;
26702;SDS011;14316;51.074;3.704;2024-01-15T01:00:43;6.97;;;3.25;;
26702;SDS011;14316;51.074;3.704;2024-01-15T01:03:09;7.30;;;3.63;;
26702;SDS011;14316;51.074;3.704;2024-01-15T01:05:35;7.85;;;3.50;;
26702;SDS011;14316;51.074;3.704;2024-01-15T01:08:01;6.85;;;3.63;;
26702;SDS011;14316;51.074;3.704;2024-01-15T01:10:27;6.00;;;2.10;;
26702;SDS011;14316;51.074;3.704;2024-01-15T01:12:53;3.67;;;3.03;;
26702;SDS011;14316;51.074;3.704;2024-01-15T01:15:19;5.57;;;2.75;;
26702;SDS011;14316;51.074;3.704;2024-01-15T01:17:45;6.05;;;3.78;;
26702;SDS011;14316;51.074;3.704;2024-01-15T01:20:11;10.93;;;4.25;;
26702;SDS011;14316;51.074;3.704;2024-01-15T01:22:37;7.35;;;4.20;;
26702;SDS011;14316;51.074;3.704;2024-01-15T01:25:04;7.22;;;4.10;;
26702;SDS011;14316;51.074;3.704;2024-01-15T01:27:30;3.95;;;3.15;;
26702;SDS011;14316;51.074;3.704;2024-01-15T01:29:56;9.50;;;3.58;;
26702;SDS011;14316;51.074;3.704;2024-01-15T01:32:22;7.68;;;3.40;;
26702;SDS011;14316;51.074;3.704;2024-01-15T01:34:48;6.13;;;3.42;;
26702;SDS011;14316;51.074;3.704;2024-01-15T01:37:14;7.22;;;3.15;;
26702;SDS011;14316;51.074;3.704;2024-01-15T01:39:40;5.30;;;2.30;;
26702;SDS011;14316;51.074;3.704;2024-01-15T01:42:07;6.30;;;3.80;;
26702;SDS011;14316;51.074;3.704;2024-01-15T01:44:33;5.93;;;3.45;;
26702;SDS011;14316;51.074;3.704;2024-01-15T01:46:59;6.88;;;3.72;;
26702;SDS011;14316;51.074;3.704;2024-01-15T01:49:26;10.48;;;4.35;;
26702;SDS011;14316;51.074;3.704;2024-01-15T01:51:53;6.75;;;4.10;;
26702;SDS011;14316;51.074;3.704;2024-01-15T01:54:22;6.78;;;4.10;;
26702;SDS011;14316;51.074;3.704;2024-01-15T01:56:49;5.93;;;3.78;;
26702;SDS011;14316;51.074;3.704;2024-01-15T01:59:16;4.15;;;3.25;;
26702;SDS011;14316;51.074;3.704;2024-01-15T02:01:42;5.80;;;2.80;;
26702;SDS011;14316;51.074;3.704;2024-01-15T02:04:10;9.43;;;3.78;;
26702;SDS011;14316;51.074;3.704;2024-01-15T02:06:36;6.68;;;3.30;;
26702;SDS011;14316;51.074;3.704;2024-01-15T02:09:03;5.68;;;2.60;;
26702;SDS011;14316;51.074;3.704;2024-01-15T02:11:30;3.92;;;1.92;;
26702;SDS011;14316;51.074;3.704;2024-01-15T02:13:56;6.35;;;3.78;;
26702;SDS011;14316;51.074;3.704;2024-01-15T02:16:22;8.70;;;3.97;;
26702;SDS011;14316;51.074;3.704;2024-01-15T02:18:48;6.35;;;3.90;;
26702;SDS011;14316;51.074;3.704;2024-01-15T02:21:15;4.68;;;2.60;;
26702;SDS011;14316;51.074;3.704;2024-01-15T02:23:41;4.90;;;3.80;;
26702;SDS011;14316;51.074;3.704;2024-01-15T02:26:07;5.05;;;3.38;;
26702;SDS011;14316;51.074;3.704;2024-01-15T02:28:33;5.97;;;2.75;;
26702;SDS011;14316;51.074;3.704;2024-01-15T02:31:00;7.65;;;3.92;;
26702;SDS011;14316;51.074;3.704;2024-01-15T02:33:26;5.63;;;3.42;;
26702;SDS011;14316;51.074;3.704;2024-01-15T02:35:52;8.25;;;4.10;;
26702;SDS011;14316;51.074;3.704;2024-01-15T02:38:18;3.22;;;2.75;;
26702;SDS011;14316;51.074;3.704;2024-01-15T02:40:44;6.25;;;2.80;;
26702;SDS011;14316;51.074;3.704;2024-01-15T02:43:10;3.45;;;2.20;;
26702;SDS011;14316;51.074;3.704;2024-01-15T02:45:38;3.85;;;2.47;;
26702;SDS011;14316;51.074;3.704;2024-01-15T02:48:04;10.15;;;4.25;;
26702;SDS011;14316;51.074;3.704;2024-01-15T02:50:30;7.55;;;3.50;;
26702;SDS011;14316;51.074;3.704;2024-01-15T02:52:56;8.90;;;3.95;;
26702;SDS011;14316;51.074;3.704;2024-01-15T02:55:22;6.70;;;3.67;;
26702;SDS011;14316;51.074;3.704;2024-01-15T02:57:48;4.43;;;2.33;;
26702;SDS011;14316;51.074;3.704;2024-01-15T03:00:14;5.50;;;3.92;;
26702;SDS011;14316;51.074;3.704;2024-01-15T03:02:40;7.50;;;4.00;;
26702;SDS011;14316;51.074;3.704;2024-01-15T03:05:09;8.25;;;4.25;;
26702;SDS011;14316;51.074;3.704;2024-01-15T03:07:35;10.68;;;4.60;;
26702;SDS011;14316;51.074;3.704;2024-01-15T03:10:02;9.95;;;3.85;;
26702;SDS011;14316;51.074;3.704;2024-01-15T03:12:28;7.47;;;4.40;;
26702;SDS011;14316;51.074;3.704;2024-01-15T03:14:54;4.88;;;2.08;;
26702;SDS011;14316;51.074;3.704;2024-01-15T03:17:20;13.68;;;3.70;;
26702;SDS011;14316;51.074;3.704;2024-01-15T03:19:46;4.47;;;2.63;;
26702;SDS011;14316;51.074;3.704;2024-01-15T03:22:12;5.13;;;3.20;;
26702;SDS011;14316;51.074;3.704;2024-01-15T03:24:38;6.68;;;4.53;;
26702;SDS011;14316;51.074;3.704;2024-01-15T03:27:04;13.18;;;4.38;;
26702;SDS011;14316;51.074;3.704;2024-01-15T03:29:30;7.55;;;3.78;;
26702;SDS011;14316;51.074;3.704;2024-01-15T03:31:56;6.10;;;3.92;;
26702;SDS011;14316;51.074;3.704;2024-01-15T03:34:22;6.78;;;3.15;;
26702;SDS011;14316;51.074;3.704;2024-01-15T03:36:48;3.80;;;2.22;;
26702;SDS011;14316;51.074;3.704;2024-01-15T03:39:14;6.93;;;3.40;;
26702;SDS011;14316;51.074;3.704;2024-01-15T03:41:40;8.43;;;3.80;;
26702;SDS011;14316;51.074;3.704;2024-01-15T03:44:05;3.70;;;1.80;;
26702;SDS011;14316;51.074;3.704;2024-01-15T03:46:32;6.53;;;2.35;;
26702;SDS011;14316;51.074;3.704;2024-01-15T03:48:57;4.72;;;2.30;;
26702;SDS011;14316;51.074;3.704;2024-01-15T03:51:24;3.80;;;1.73;;
26702;SDS011;14316;51.074;3.704;2024-01-15T03:53:50;6.68;;;3.00;;
26702;SDS011;14316;51.074;3.704;2024-01-15T03:56:16;8.23;;;2.53;;
26702;SDS011;14316;51.074;3.704;2024-01-15T03:58:42;5.70;;;3.08;;
26702;SDS011;14316;51.074;3.704;2024-01-15T04:01:11;7.07;;;2.22;;
26702;SDS011;14316;51.074;3.704;2024-01-15T04:03:37;9.40;;;1.75;;
26702;SDS011;14316;51.074;3.704;2024-01-15T04:06:03;3.17;;;1.80;;
26702;SDS011;14316;51.074;3.704;2024-01-15T04:08:29;5.38;;;1.65;;
26702;SDS011;14316;51.074;3.704;2024-01-15T04:10:55;7.65;;;2.10;;
26702;SDS011;14316;51.074;3.704;2024-01-15T04:13:21;3.13;;;1.48;;
26702;SDS011;14316;51.074;3.704;2024-01-15T04:15:48;3.45;;;1.13;;
26702;SDS011;14316;51.074;3.704;2024-01-15T04:18:15;4.35;;;1.75;;
26702;SDS011;14316;51.074;3.704;2024-01-15T04:20:42;5.75;;;2.10;;
26702;SDS011;14316;51.074;3.704;2024-01-15T04:23:08;5.57;;;1.95;;
26702;SDS011;14316;51.074;3.704;2024-01-15T04:25:34;5.63;;;1.85;;
26702;SDS011;14316;51.074;3.704;2024-01-15T04:28:00;5.00;;;2.25;;
26702;SDS011;14316;51.074;3.704;2024-01-15T04:30:26;4.88;;;2.17;;
26702;SDS011;14316;51.074;3.704;2024-01-15T04:32:52;3.03;;;1.83;;
26702;SDS011;14316;51.074;3.704;2024-01-15T04:35:18;8.43;;;1.88;;
26702;SDS011;14316;51.074;3.704;2024-01-15T04:37:44;6.68;;;2.55;;
26702;SDS011;14316;51.074;3.704;2024-01-15T04:40:10;9.27;;;1.80;;
26702;SDS011;14316;51.074;3.704;2024-01-15T04:42:36;9.27;;;2.10;;
26702;SDS011;14316;51.074;3.704;2024-01-15T04:45:02;7.40;;;2.15;;
26702;SDS011;14316;51.074;3.704;2024-01-15T04:47:29;5.32;;;2.30;;
26702;SDS011;14316;51.074;3.704;2024-01-15T04:49:55;6.85;;;2.50;;
26702;SDS011;14316;51.074;3.704;2024-01-15T04:52:20;4.40;;;1.55;;
26702;SDS011;14316;51.074;3.704;2024-01-15T04:54:46;4.15;;;2.10;;
26702;SDS011;14316;51.074;3.704;2024-01-15T04:57:12;4.18;;;1.98;;
26702;SDS011;14316;51.074;3.704;2024-01-15T04:59:38;7.75;;;2.33;;
26702;SDS011;14316;51.074;3.704;2024-01-15T05:02:04;5.70;;;1.70;;
26702;SDS011;14316;51.074;3.704;2024-01-15T05:04:30;6.85;;;2.40;;
26702;SDS011;14316;51.074;3.704;2024-01-15T05:06:56;10.52;;;2.53;;
26702;SDS011;14316;51.074;3.704;2024-01-15T05:09:21;6.95;;;2.50;;
26702;SDS011;14316;51.074;3.704;2024-01-15T05:11:47;3.33;;;1.20;;
26702;SDS011;14316;51.074;3.704;2024-01-15T05:14:13;3.15;;;1.40;;
26702;SDS011;14316;51.074;3.704;2024-01-15T05:16:39;6.60;;;2.13;;
26702;SDS011;14316;51.074;3.704;2024-01-15T05:19:11;6.43;;;1.85;;
26702;SDS011;14316;51.074;3.704;2024-01-15T05:21:37;5.70;;;2.72;;
26702;SDS011;14316;51.074;3.704;2024-01-15T05:24:03;3.83;;;2.40;;
26702;SDS011;14316;51.074;3.704;2024-01-15T05:26:29;4.78;;;1.63;;
26702;SDS011;14316;51.074;3.704;2024-01-15T05:28:55;7.80;;;2.17;;
26702;SDS011;14316;51.074;3.704;2024-01-15T05:31:21;4.93;;;1.88;;
26702;SDS011;14316;51.074;3.704;2024-01-15T05:33:46;3.92;;;2.08;;
26702;SDS011;14316;51.074;3.704;2024-01-15T05:36:12;4.70;;;2.35;;
26702;SDS011;14316;51.074;3.704;2024-01-15T05:38:38;8.63;;;3.38;;
26702;SDS011;14316;51.074;3.704;2024-01-15T05:41:04;8.07;;;2.03;;
26702;SDS011;14316;51.074;3.704;2024-01-15T05:43:30;4.20;;;1.85;;
26702;SDS011;14316;51.074;3.704;2024-01-15T05:45:56;4.07;;;1.77;;
26702;SDS011;14316;51.074;3.704;2024-01-15T05:48:22;2.30;;;1.55;;
26702;SDS011;14316;51.074;3.704;2024-01-15T05:50:48;2.40;;;1.27;;
26702;SDS011;14316;51.074;3.704;2024-01-15T05:53:13;10.35;;;2.78;;
26702;SDS011;14316;51.074;3.704;2024-01-15T05:55:39;8.60;;;3.70;;
26702;SDS011;14316;51.074;3.704;2024-01-15T05:58:05;9.65;;;3.15;;
26702;SDS011;14316;51.074;3.704;2024-01-15T06:00:31;11.25;;;3.03;;
26702;SDS011;14316;51.074;3.704;2024-01-15T06:02:59;11.45;;;3.42;;
26702;SDS011;14316;51.074;3.704;2024-01-15T06:05:25;7.25;;;2.83;;
26702;SDS011;14316;51.074;3.704;2024-01-15T06:07:50;8.70;;;2.47;;
26702;SDS011;14316;51.074;3.704;2024-01-15T06:10:16;6.25;;;2.38;;
26702;SDS011;14316;51.074;3.704;2024-01-15T06:12:43;11.23;;;2.90;;
26702;SDS011;14316;51.074;3.704;2024-01-15T06:15:09;7.18;;;2.35;;
26702;SDS011;14316;51.074;3.704;2024-01-15T06:17:35;9.35;;;2.75;;
26702;SDS011;14316;51.074;3.704;2024-01-15T06:20:00;10.57;;;2.88;;
26702;SDS011;14316;51.074;3.704;2024-01-15T06:22:26;7.10;;;2.85;;
26702;SDS011;14316;51.074;3.704;2024-01-15T06:24:52;7.45;;;2.80;;
26702;SDS011;14316;51.074;3.704;2024-01-15T06:27:18;5.88;;;1.95;;
26702;SDS011;14316;51.074;3.704;2024-01-15T06:29:46;8.43;;;2.10;;
26702;SDS011;14316;51.074;3.704;2024-01-15T06:32:13;9.40;;;2.50;;
26702;SDS011;14316;51.074;3.704;2024-01-15T06:34:38;9.40;;;2.80;;
26702;SDS011;14316;51.074;3.704;2024-01-15T06:37:04;11.70;;;2.65;;
26702;SDS011;14316;51.074;3.704;2024-01-15T06:39:30;13.80;;;2.92;;
26702;SDS011;14316;51.074;3.704;2024-01-15T06:41:56;8.73;;;2.70;;
26702;SDS011;14316;51.074;3.704;2024-01-15T06:44:22;9.65;;;2.53;;
26702;SDS011;14316;51.074;3.704;2024-01-15T06:46:48;7.32;;;2.80;;
26702;SDS011;14316;51.074;3.704;2024-01-15T06:49:14;10.40;;;2.42;;
26702;SDS011;14316;51.074;3.704;2024-01-15T06:51:39;10.57;;;2.97;;
26702;SDS011;14316;51.074;3.704;2024-01-15T06:54:05;9.38;;;2.35;;
26702;SDS011;14316;51.074;3.704;2024-01-15T06:56:31;6.70;;;2.10;;
26702;SDS011;14316;51.074;3.704;2024-01-15T06:58:58;6.47;;;2.10;;
26702;SDS011;14316;51.074;3.704;2024-01-15T07:01:24;9.38;;;2.17;;
26702;SDS011;14316;51.074;3.704;2024-01-15T07:03:50;11.07;;;2.05;;
26702;SDS011;14316;51.074;3.704;2024-01-15T07:06:16;4.95;;;1.90;;
26702;SDS011;14316;51.074;3.704;2024-01-15T07:08:42;8.20;;;2.20;;
26702;SDS011;14316;51.074;3.704;2024-01-15T07:11:08;8.88;;;2.00;;
26702;SDS011;14316;51.074;3.704;2024-01-15T07:13:35;9.55;;;1.63;;
26702;SDS011;14316;51.074;3.704;2024-01-15T07:16:02;5.78;;;1.92;;
26702;SDS011;14316;51.074;3.704;2024-01-15T07:18:28;9.40;;;1.60;;
26702;SDS011;14316;51.074;3.704;2024-01-15T07:20:54;9.20;;;1.90;;
26702;SDS011;14316;51.074;3.704;2024-01-15T07:23:20;7.90;;;2.15;;
26702;SDS011;14316;51.074;3.704;2024-01-15T07:25:46;5.80;;;1.90;;
26702;SDS011;14316;51.074;3.704;2024-01-15T07:28:12;6.05;;;1.70;;
26702;SDS011;14316;51.074;3.704;2024-01-15T07:30:38;9.65;;;2.20;;
26702;SDS011;14316;51.074;3.704;2024-01-15T07:33:04;9.48;;;2.55;;
26702;SDS011;14316;51.074;3.704;2024-01-15T07:35:30;9.55;;;1.73;;
26702;SDS011;14316;51.074;3.704;2024-01-15T07:37:57;8.70;;;2.08;;
26702;SDS011;14316;51.074;3.704;2024-01-15T07:40:22;5.15;;;1.85;;
26702;SDS011;14316;51.074;3.704;2024-01-15T07:42:49;6.40;;;2.10;;
26702;SDS011;14316;51.074;3.704;2024-01-15T07:45:16;8.13;;;2.15;;
26702;SDS011;14316;51.074;3.704;2024-01-15T07:47:42;6.95;;;1.88;;
26702;SDS011;14316;51.074;3.704;2024-01-15T07:50:08;8.27;;;1.85;;
26702;SDS011;14316;51.074;3.704;2024-01-15T07:52:34;9.70;;;2.95;;
26702;SDS011;14316;51.074;3.704;2024-01-15T07:55:00;5.47;;;1.88;;
26702;SDS011;14316;51.074;3.704;2024-01-15T07:57:26;5.80;;;1.90;;
26702;SDS011;14316;51.074;3.704;2024-01-15T07:59:52;11.68;;;2.33;;
26702;SDS011;14316;51.074;3.704;2024-01-15T08:02:18;6.90;;;1.95;;
26702;SDS011;14316;51.074;3.704;2024-01-15T08:04:44;7.20;;;2.42;;
26702;SDS011;14316;51.074;3.704;2024-01-15T08:07:11;6.85;;;1.90;;
26702;SDS011;14316;51.074;3.704;2024-01-15T08:09:38;4.93;;;2.13;;
26702;SDS011;14316;51.074;3.704;2024-01-15T08:12:04;6.30;;;2.45;;
26702;SDS011;14316;51.074;3.704;2024-01-15T08:14:31;6.30;;;2.47;;
26702;SDS011;14316;51.074;3.704;2024-01-15T08:16:57;4.78;;;1.40;;
26702;SDS011;14316;51.074;3.704;2024-01-15T08:19:23;7.40;;;1.75;;
26702;SDS011;14316;51.074;3.704;2024-01-15T08:21:49;6.70;;;2.10;;
26702;SDS011;14316;51.074;3.704;2024-01-15T08:24:15;6.53;;;1.70;;
26702;SDS011;14316;51.074;3.704;2024-01-15T08:26:42;8.05;;;2.25;;
26702;SDS011;14316;51.074;3.704;2024-01-15T08:29:08;5.13;;;1.80;;
26702;SDS011;14316;51.074;3.704;2024-01-15T08:31:34;12.07;;;2.40;;
26702;SDS011;14316;51.074;3.704;2024-01-15T08:34:00;9.38;;;2.00;;
26702;SDS011;14316;51.074;3.704;2024-01-15T08:36:27;3.53;;;1.20;;
26702;SDS011;14316;51.074;3.704;2024-01-15T08:38:55;8.02;;;2.50;;
26702;SDS011;14316;51.074;3.704;2024-01-15T08:41:21;6.90;;;2.42;;
26702;SDS011;14316;51.074;3.704;2024-01-15T08:43:48;4.65;;;2.15;;
26702;SDS011;14316;51.074;3.704;2024-01-15T08:46:14;4.90;;;2.10;;
26702;SDS011;14316;51.074;3.704;2024-01-15T08:48:40;8.90;;;1.75;;
26702;SDS011;14316;51.074;3.704;2024-01-15T08:51:06;8.77;;;1.60;;
26702;SDS011;14316;51.074;3.704;2024-01-15T08:53:33;4.72;;;1.50;;
26702;SDS011;14316;51.074;3.704;2024-01-15T08:55:59;4.45;;;1.70;;
26702;SDS011;14316;51.074;3.704;2024-01-15T08:58:25;7.22;;;1.80;;
26702;SDS011;14316;51.074;3.704;2024-01-15T09:00:51;9.85;;;1.80;;
26702;SDS011;14316;51.074;3.704;2024-01-15T09:03:17;8.85;;;1.60;;
26702;SDS011;14316;51.074;3.704;2024-01-15T09:05:43;6.88;;;1.33;;
26702;SDS011;14316;51.074;3.704;2024-01-15T09:08:09;9.07;;;2.15;;
26702;SDS011;14316;51.074;3.704;2024-01-15T09:10:35;6.80;;;1.55;;
26702;SDS011;14316;51.074;3.704;2024-01-15T09:13:01;9.35;;;1.50;;
26702;SDS011;14316;51.074;3.704;2024-01-15T09:15:28;4.20;;;1.25;;
26702;SDS011;14316;51.074;3.704;2024-01-15T09:17:54;7.78;;;1.98;;
26702;SDS011;14316;51.074;3.704;2024-01-15T09:20:22;5.80;;;2.00;;
26702;SDS011;14316;51.074;3.704;2024-01-15T09:22:48;6.88;;;1.48;;
26702;SDS011;14316;51.074;3.704;2024-01-15T09:25:14;8.18;;;1.92;;
26702;SDS011;14316;51.074;3.704;2024-01-15T09:27:40;10.20;;;1.80;;
26702;SDS011;14316;51.074;3.704;2024-01-15T09:30:07;10.13;;;2.17;;
26702;SDS011;14316;51.074;3.704;2024-01-15T09:32:33;3.28;;;1.23;;
26702;SDS011;14316;51.074;3.704;2024-01-15T09:34:59;4.43;;;1.60;;
26702;SDS011;14316;51.074;3.704;2024-01-15T09:37:25;5.28;;;1.63;;
26702;SDS011;14316;51.074;3.704;2024-01-15T09:39:51;6.25;;;1.70;;
26702;SDS011;14316;51.074;3.704;2024-01-15T09:42:17;5.75;;;1.73;;
26702;SDS011;14316;51.074;3.704;2024-01-15T09:44:43;5.70;;;1.83;;
26702;SDS011;14316;51.074;3.704;2024-01-15T09:47:10;6.28;;;2.00;;
26702;SDS011;14316;51.074;3.704;2024-01-15T09:49:37;1.63;;;0.88;;
26702;SDS011;14316;51.074;3.704;2024-01-15T09:52:05;8.32;;;1.90;;
26702;SDS011;14316;51.074;3.704;2024-01-15T09:54:33;3.72;;;1.20;;
26702;SDS011;14316;51.074;3.704;2024-01-15T09:57:00;3.50;;;1.38;;
26702;SDS011;14316;51.074;3.704;2024-01-15T09:59:26;6.85;;;3.10;;
26702;SDS011;14316;51.074;3.704;2024-01-15T10:01:53;7.00;;;2.17;;
26702;SDS011;14316;51.074;3.704;2024-01-15T10:04:21;6.85;;;2.13;;
26702;SDS011;14316;51.074;3.704;2024-01-15T10:06:49;6.32;;;1.30;;
26702;SDS011;14316;51.074;3.704;2024-01-15T10:09:16;8.38;;;2.03;;
26702;SDS011;14316;51.074;3.704;2024-01-15T10:11:43;10.15;;;2.08;;
26702;SDS011;14316;51.074;3.704;2024-01-15T10:14:10;2.15;;;1.20;;
26702;SDS011;14316;51.074;3.704;2024-01-15T10:16:40;3.00;;;1.58;;
26702;SDS011;14316;51.074;3.704;2024-01-15T10:19:08;6.53;;;1.77;;
26702;SDS011;14316;51.074;3.704;2024-01-15T10:21:34;7.22;;;1.75;;
26702;SDS011;14316;51.074;3.704;2024-01-15T10:24:01;5.68;;;1.27;;
26702;SDS011;14316;51.074;3.704;2024-01-15T10:26:28;7.00;;;1.67;;
26702;SDS011;14316;51.074;3.704;2024-01-15T10:28:54;10.88;;;1.98;;
26702;SDS011;14316;51.074;3.704;2024-01-15T10:31:20;10.10;;;1.88;;
26702;SDS011;14316;51.074;3.704;2024-01-15T10:33:49;2.83;;;1.10;;
26702;SDS011;14316;51.074;3.704;2024-01-15T10:36:16;5.53;;;1.70;;
26702;SDS011;14316;51.074;3.704;2024-01-15T10:38:43;9.93;;;2.20;;
26702;SDS011;14316;51.074;3.704;2024-01-15T10:41:10;7.47;;;1.85;;
26702;SDS011;14316;51.074;3.704;2024-01-15T10:43:36;7.75;;;2.10;;
26702;SDS011;14316;51.074;3.704;2024-01-15T10:46:02;9.75;;;2.10;;
26702;SDS011;14316;51.074;3.704;2024-01-15T10:48:29;7.70;;;1.60;;
26702;SDS011;14316;51.074;3.704;2024-01-15T10:50:59;8.05;;;2.22;;
26702;SDS011;14316;51.074;3.704;2024-01-15T10:53:25;3.05;;;1.58;;
26702;SDS011;14316;51.074;3.704;2024-01-15T10:55:51;7.88;;;2.08;;
26702;SDS011;14316;51.074;3.704;2024-01-15T10:58:18;9.10;;;1.88;;
26702;SDS011;14316;51.074;3.704;2024-01-15T11:00:45;5.60;;;2.15;;
26702;SDS011;14316;51.074;3.704;2024-01-15T11:03:11;8.23;;;1.92;;
26702;SDS011;14316;51.074;3.704;2024-01-15T11:05:41;6.60;;;1.77;;
26702;SDS011;14316;51.074;3.704;2024-01-15T11:08:08;7.15;;;1.70;;
26702;SDS011;14316;51.074;3.704;2024-01-15T11:10:41;5.97;;;1.15;;
26702;SDS011;14316;51.074;3.704;2024-01-15T11:13:21;9.48;;;2.28;;
26702;SDS011;14316;51.074;3.704;2024-01-15T11:16:08;5.30;;;1.80;;
26702;SDS011;14316;51.074;3.704;2024-01-15T11:23:49;5.80;;;1.77;;
26702;SDS011;14316;51.074;3.704;2024-01-15T11:29:03;4.82;;;1.52;;
26702;SDS011;14316;51.074;3.704;2024-01-15T11:34:07;11.00;;;2.00;;
26702;SDS011;14316;51.074;3.704;2024-01-15T11:41:56;6.13;;;1.90;;
26702;SDS011;14316;51.074;3.704;2024-01-15T11:44:26;7.28;;;1.67;;
26702;SDS011;14316;51.074;3.704;2024-01-15T11:46:59;5.30;;;1.58;;
26702;SDS011;14316;51.074;3.704;2024-01-15T11:52:18;3.55;;;1.13;;
26702;SDS011;14316;51.074;3.704;2024-01-15T11:54:51;7.07;;;1.48;;
26702;SDS011;14316;51.074;3.704;2024-01-15T12:00:08;4.32;;;1.80;;
26702;SDS011;14316;51.074;3.704;2024-01-15T12:02:36;5.45;;;1.95;;
26702;SDS011;14316;51.074;3.704;2024-01-15T12:05:07;6.97;;;1.45;;
26702;SDS011;14316;51.074;3.704;2024-01-15T12:07:34;6.32;;;1.77;;
26702;SDS011;14316;51.074;3.704;2024-01-15T12:10:00;10.75;;;1.98;;
26702;SDS011;14316;51.074;3.704;2024-01-15T12:12:29;6.22;;;2.05;;
26702;SDS011;14316;51.074;3.704;2024-01-15T12:14:59;4.05;;;1.55;;
26702;SDS011;14316;51.074;3.704;2024-01-15T12:17:25;6.97;;;2.05;;
26702;SDS011;14316;51.074;3.704;2024-01-15T12:19:51;2.88;;;1.20;;
26702;SDS011;14316;51.074;3.704;2024-01-15T12:22:17;7.10;;;2.10;;
26702;SDS011;14316;51.074;3.704;2024-01-15T12:24:44;7.13;;;1.60;;
26702;SDS011;14316;51.074;3.704;2024-01-15T12:27:10;6.45;;;1.30;;
26702;SDS011;14316;51.074;3.704;2024-01-15T12:29:37;5.00;;;1.50;;
26702;SDS011;14316;51.074;3.704;2024-01-15T12:32:04;7.53;;;3.25;;
26702;SDS011;14316;51.074;3.704;2024-01-15T12:34:30;7.50;;;2.40;;
26702;SDS011;14316;51.074;3.704;2024-01-15T12:36:57;9.18;;;3.20;;
26702;SDS011;14316;51.074;3.704;2024-01-15T12:39:24;10.85;;;3.15;;
26702;SDS011;14316;51.074;3.704;2024-01-15T12:41:51;5.97;;;1.88;;
26702;SDS011;14316;51.074;3.704;2024-01-15T12:44:17;7.22;;;2.42;;
26702;SDS011;14316;51.074;3.704;2024-01-15T12:46:43;11.80;;;2.63;;
26702;SDS011;14316;51.074;3.704;2024-01-15T12:49:08;10.63;;;2.35;;
26702;SDS011;14316;51.074;3.704;2024-01-15T12:51:34;9.32;;;2.05;;
26702;SDS011;14316;51.074;3.704;2024-01-15T12:54:00;8.25;;;2.20;;
26702;SDS011;14316;51.074;3.704;2024-01-15T12:56:26;8.40;;;1.73;;
26702;SDS011;14316;51.074;3.704;2024-01-15T12:58:52;7.43;;;1.90;;
26702;SDS011;14316;51.074;3.704;2024-01-15T13:01:18;3.22;;;1.40;;
26702;SDS011;14316;51.074;3.704;2024-01-15T13:03:44;10.15;;;2.38;;
26702;SDS011;14316;51.074;3.704;2024-01-15T13:06:09;5.07;;;1.20;;
26702;SDS011;14316;51.074;3.704;2024-01-15T13:08:35;7.50;;;1.45;;
26702;SDS011;14316;51.074;3.704;2024-01-15T13:11:01;7.47;;;1.80;;
26702;SDS011;14316;51.074;3.704;2024-01-15T13:13:28;5.70;;;2.30;;
26702;SDS011;14316;51.074;3.704;2024-01-15T13:15:55;8.02;;;1.83;;
26702;SDS011;14316;51.074;3.704;2024-01-15T13:18:21;8.48;;;2.42;;
26702;SDS011;14316;51.074;3.704;2024-01-15T13:20:47;7.88;;;2.13;;
26702;SDS011;14316;51.074;3.704;2024-01-15T13:23:13;10.80;;;1.90;;
26702;SDS011;14316;51.074;3.704;2024-01-15T13:25:39;8.27;;;2.30;;
26702;SDS011;14316;51.074;3.704;2024-01-15T13:28:06;11.75;;;1.95;;
26702;SDS011;14316;51.074;3.704;2024-01-15T13:30:33;9.90;;;2.13;;
26702;SDS011;14316;51.074;3.704;2024-01-15T13:32:59;10.15;;;2.35;;
26702;SDS011;14316;51.074;3.704;2024-01-15T13:35:29;10.50;;;2.25;;
26702;SDS011;14316;51.074;3.704;2024-01-15T13:37:55;6.88;;;1.90;;
26702;SDS011;14316;51.074;3.704;2024-01-15T13:40:21;8.35;;;1.95;;
26702;SDS011;14316;51.074;3.704;2024-01-15T13:42:47;4.25;;;1.10;;
26702;SDS011;14316;51.074;3.704;2024-01-15T13:45:13;7.30;;;1.60;;
26702;SDS011;14316;51.074;3.704;2024-01-15T13:47:40;6.40;;;1.35;;
26702;SDS011;14316;51.074;3.704;2024-01-15T13:50:07;7.93;;;2.03;;
26702;SDS011;14316;51.074;3.704;2024-01-15T13:52:34;8.43;;;1.50;;
26702;SDS011;14316;51.074;3.704;2024-01-15T13:55:00;3.83;;;1.42;;
26702;SDS011;14316;51.074;3.704;2024-01-15T13:57:26;6.65;;;1.80;;
26702;SDS011;14316;51.074;3.704;2024-01-15T13:59:52;8.40;;;2.38;;
26702;SDS011;14316;51.074;3.704;2024-01-15T14:02:18;3.92;;;1.45;;
26702;SDS011;14316;51.074;3.704;2024-01-15T14:04:45;10.82;;;2.10;;
26702;SDS011;14316;51.074;3.704;2024-01-15T14:07:11;6.60;;;2.05;;
26702;SDS011;14316;51.074;3.704;2024-01-15T14:09:37;7.28;;;2.00;;
26702;SDS011;14316;51.074;3.704;2024-01-15T14:12:03;8.38;;;1.77;;
26702;SDS011;14316;51.074;3.704;2024-01-15T14:14:30;10.98;;;2.20;;
26702;SDS011;14316;51.074;3.704;2024-01-15T14:16:56;5.55;;;1.92;;
26702;SDS011;14316;51.074;3.704;2024-01-15T14:19:22;10.60;;;3.00;;
26702;SDS011;14316;51.074;3.704;2024-01-15T14:21:48;10.85;;;2.30;;
26702;SDS011;14316;51.074;3.704;2024-01-15T14:24:14;10.30;;;2.47;;
26702;SDS011;14316;51.074;3.704;2024-01-15T14:26:41;13.98;;;2.20;;
26702;SDS011;14316;51.074;3.704;2024-01-15T14:29:07;9.52;;;2.47;;
26702;SDS011;14316;51.074;3.704;2024-01-15T14:31:33;7.72;;;2.05;;
26702;SDS011;14316;51.074;3.704;2024-01-15T14:33:59;10.02;;;2.05;;
26702;SDS011;14316;51.074;3.704;2024-01-15T14:36:26;8.82;;;1.80;;
26702;SDS011;14316;51.074;3.704;2024-01-15T14:38:52;10.15;;;2.33;;
26702;SDS011;14316;51.074;3.704;2024-01-15T14:41:17;10.25;;;2.20;;
26702;SDS011;14316;51.074;3.704;2024-01-15T14:43:43;9.27;;;2.58;;
26702;SDS011;14316;51.074;3.704;2024-01-15T14:46:10;11.20;;;2.42;;
26702;SDS011;14316;51.074;3.704;2024-01-15T14:48:36;11.85;;;1.92;;
26702;SDS011;14316;51.074;3.704;2024-01-15T14:51:02;5.65;;;1.63;;
26702;SDS011;14316;51.074;3.704;2024-01-15T14:53:28;4.35;;;1.60;;
26702;SDS011;14316;51.074;3.704;2024-01-15T14:55:54;6.57;;;2.08;;
26702;SDS011;14316;51.074;3.704;2024-01-15T14:58:20;4.93;;;1.58;;
26702;SDS011;14316;51.074;3.704;2024-01-15T15:00:46;7.10;;;2.17;;
26702;SDS011;14316;51.074;3.704;2024-01-15T15:03:14;15.85;;;2.10;;